sensor_id;sensor_type;location;lat;lon;timestamp;temperature;humidity
20291;DHT22;10304;51.074;13.754;2023-06-10T00:02:14;23.00;1.00
20291;DHT22;10304;51.074;13.754;2023-06-10T00:04:41;23.00;1.00
20291;DHT22;10304;51.074;13.754;2023-06-10T00:07:08;22.90;1.00
20291;DHT22;10304;51.074;13.754;2023-06-10T00:09:36;22.80;1.00
20291;DHT22;10304;51.074;13.754;2023-06-10T00:12:04;22.80;1.00
20291;DHT22;10304;51.074;13.754;2023-06-10T00:14:31;22.70;1.00
20291;DHT22;10304;51.074;13.754;2023-06-10T00:16:58;22.70;1.00
20291;DHT22;10304;51.074;13.754;2023-06-10T00:19:25;22.60;26.60
20291;DHT22;10304;51.074;13.754;2023-06-10T00:21:57;22.60;38.60
20291;DHT22;10304;51.074;13.754;2023-06-10T00:24:23;22.60;58.60
20291;DHT22;10304;51.074;13.754;2023-06-10T00:26:50;22.60;1.00
20291;DHT22;10304;51.074;13.754;2023-06-10T00:29:17;22.50;1.00
20291;DHT22;10304;51.074;13.754;2023-06-10T00:31:45;22.50;1.00
20291;DHT22;10304;51.074;13.754;2023-06-10T00:34:12;22.50;1.00
20291;DHT22;10304;51.074;13.754;2023-06-10T00:36:39;22.50;1.00
20291;DHT22;10304;51.074;13.754;2023-06-10T00:39:06;22.40;45.40
20291;DHT22;10304;51.074;13.754;2023-06-10T00:41:32;22.40;99.90
20291;DHT22;10304;51.074;13.754;2023-06-10T00:44:00;22.40;99.90
20291;DHT22;10304;51.074;13.754;2023-06-10T00:46:27;22.30;1.00
20291;DHT22;10304;51.074;13.754;2023-06-10T00:48:54;22.20;99.90
20291;DHT22;10304;51.074;13.754;2023-06-10T00:51:22;22.20;99.90
20291;DHT22;10304;51.074;13.754;2023-06-10T00:53:49;22.20;99.90
20291;DHT22;10304;51.074;13.754;2023-06-10T00:56:16;22.10;99.90
20291;DHT22;10304;51.074;13.754;2023-06-10T00:58:43;22.10;99.90
20291;DHT22;10304;51.074;13.754;2023-06-10T01:01:10;22.10;99.90
20291;DHT22;10304;51.074;13.754;2023-06-10T01:03:39;22.00;99.90
20291;DHT22;10304;51.074;13.754;2023-06-10T01:08:54;22.00;1.00
20291;DHT22;10304;51.074;13.754;2023-06-10T01:11:36;21.90;99.90
20291;DHT22;10304;51.074;13.754;2023-06-10T01:14:04;21.80;99.90
20291;DHT22;10304;51.074;13.754;2023-06-10T01:16:32;21.80;99.90
20291;DHT22;10304;51.074;13.754;2023-06-10T01:18:59;21.80;1.00
20291;DHT22;10304;51.074;13.754;2023-06-10T01:21:26;21.70;1.00
20291;DHT22;10304;51.074;13.754;2023-06-10T01:23:54;21.70;99.90
20291;DHT22;10304;51.074;13.754;2023-06-10T01:26:28;21.60;1.00
20291;DHT22;10304;51.074;13.754;2023-06-10T01:29:07;21.60;1.00
20291;DHT22;10304;51.074;13.754;2023-06-10T01:31:42;21.50;1.00
20291;DHT22;10304;51.074;13.754;2023-06-10T01:34:14;21.50;1.00
20291;DHT22;10304;51.074;13.754;2023-06-10T01:36:47;21.50;1.00
20291;DHT22;10304;51.074;13.754;2023-06-10T01:39:20;21.40;1.00
20291;DHT22;10304;51.074;13.754;2023-06-10T01:41:49;21.40;99.90
20291;DHT22;10304;51.074;13.754;2023-06-10T01:44:20;21.40;99.90
20291;DHT22;10304;51.074;13.754;2023-06-10T01:46:47;21.40;99.90
20291;DHT22;10304;51.074;13.754;2023-06-10T01:49:14;21.40;99.90
20291;DHT22;10304;51.074;13.754;2023-06-10T01:51:40;21.30;99.90
20291;DHT22;10304;51.074;13.754;2023-06-10T01:54:07;21.30;99.90
20291;DHT22;10304;51.074;13.754;2023-06-10T01:56:34;21.30;99.90
20291;DHT22;10304;51.074;13.754;2023-06-10T01:59:01;21.30;1.00
20291;DHT22;10304;51.074;13.754;2023-06-10T02:01:29;21.20;99.90
20291;DHT22;10304;51.074;13.754;2023-06-10T02:03:55;21.30;1.00
20291;DHT22;10304;51.074;13.754;2023-06-10T02:06:22;21.20;1.00
20291;DHT22;10304;51.074;13.754;2023-06-10T02:08:49;21.20;1.00
20291;DHT22;10304;51.074;13.754;2023-06-10T02:11:16;21.10;1.00
20291;DHT22;10304;51.074;13.754;2023-06-10T02:13:42;21.10;1.00
20291;DHT22;10304;51.074;13.754;2023-06-10T02:16:09;21.10;1.00
20291;DHT22;10304;51.074;13.754;2023-06-10T02:18:41;21.00;1.00
20291;DHT22;10304;51.074;13.754;2023-06-10T02:21:10;21.00;1.00
20291;DHT22;10304;51.074;13.754;2023-06-10T02:23:37;21.00;6.20
20291;DHT22;10304;51.074;13.754;2023-06-10T02:26:04;20.90;99.90
20291;DHT22;10304;51.074;13.754;2023-06-10T02:28:30;20.90;99.90
20291;DHT22;10304;51.074;13.754;2023-06-10T02:30:57;20.90;99.90
20291;DHT22;10304;51.074;13.754;2023-06-10T02:33:25;20.90;99.90
20291;DHT22;10304;51.074;13.754;2023-06-10T02:35:53;20.70;99.90
20291;DHT22;10304;51.074;13.754;2023-06-10T02:38:20;20.70;99.90
20291;DHT22;10304;51.074;13.754;2023-06-10T02:40:47;20.70;99.90
20291;DHT22;10304;51.074;13.754;2023-06-10T02:43:14;20.60;99.90
20291;DHT22;10304;51.074;13.754;2023-06-10T02:45:40;20.60;99.90
20291;DHT22;10304;51.074;13.754;2023-06-10T02:48:07;20.50;99.90
20291;DHT22;10304;51.074;13.754;2023-06-10T02:50:34;20.50;1.00
20291;DHT22;10304;51.074;13.754;2023-06-10T02:53:01;20.40;1.00
20291;DHT22;10304;51.074;13.754;2023-06-10T02:55:27;20.40;1.00
20291;DHT22;10304;51.074;13.754;2023-06-10T02:57:55;20.30;1.00
20291;DHT22;10304;51.074;13.754;2023-06-10T03:00:22;20.30;1.00
20291;DHT22;10304;51.074;13.754;2023-06-10T03:02:49;20.30;24.50
20291;DHT22;10304;51.074;13.754;2023-06-10T03:05:16;20.20;99.90
20291;DHT22;10304;51.074;13.754;2023-06-10T03:07:43;20.20;99.90
20291;DHT22;10304;51.074;13.754;2023-06-10T03:10:10;20.20;99.90
20291;DHT22;10304;51.074;13.754;2023-06-10T03:12:37;20.20;99.90
20291;DHT22;10304;51.074;13.754;2023-06-10T03:15:04;20.10;99.90
20291;DHT22;10304;51.074;13.754;2023-06-10T03:17:31;20.00;99.90
20291;DHT22;10304;51.074;13.754;2023-06-10T03:19:58;20.10;99.90
20291;DHT22;10304;51.074;13.754;2023-06-10T03:22:24;20.00;1.00
20291;DHT22;10304;51.074;13.754;2023-06-10T03:24:51;20.00;99.90
20291;DHT22;10304;51.074;13.754;2023-06-10T03:27:20;20.00;1.00
20291;DHT22;10304;51.074;13.754;2023-06-10T03:29:46;19.90;1.00
20291;DHT22;10304;51.074;13.754;2023-06-10T03:32:13;19.90;1.00
20291;DHT22;10304;51.074;13.754;2023-06-10T03:34:40;19.80;1.00
20291;DHT22;10304;51.074;13.754;2023-06-10T03:37:07;19.80;1.00
20291;DHT22;10304;51.074;13.754;2023-06-10T03:39:34;19.80;99.90
20291;DHT22;10304;51.074;13.754;2023-06-10T03:42:00;19.80;1.00
20291;DHT22;10304;51.074;13.754;2023-06-10T03:44:27;19.80;1.00
20291;DHT22;10304;51.074;13.754;2023-06-10T03:46:55;19.70;99.90
20291;DHT22;10304;51.074;13.754;2023-06-10T03:49:22;19.70;99.90
20291;DHT22;10304;51.074;13.754;2023-06-10T03:51:52;19.80;99.90
20291;DHT22;10304;51.074;13.754;2023-06-10T03:54:19;19.80;99.90
20291;DHT22;10304;51.074;13.754;2023-06-10T03:56:46;19.80;1.00
20291;DHT22;10304;51.074;13.754;2023-06-10T03:59:14;19.80;99.90
20291;DHT22;10304;51.074;13.754;2023-06-10T04:01:41;19.80;1.00
20291;DHT22;10304;51.074;13.754;2023-06-10T04:04:08;19.80;1.00
20291;DHT22;10304;51.074;13.754;2023-06-10T04:06:35;19.80;1.00
20291;DHT22;10304;51.074;13.754;2023-06-10T04:09:01;19.90;1.00
20291;DHT22;10304;51.074;13.754;2023-06-10T04:11:29;19.90;1.00
20291;DHT22;10304;51.074;13.754;2023-06-10T04:13:56;19.90;99.90
20291;DHT22;10304;51.074;13.754;2023-06-10T04:16:23;19.90;97.00
20291;DHT22;10304;51.074;13.754;2023-06-10T04:18:49;19.90;75.80
20291;DHT22;10304;51.074;13.754;2023-06-10T04:21:16;20.00;99.90
20291;DHT22;10304;51.074;13.754;2023-06-10T04:23:44;20.00;99.90
20291;DHT22;10304;51.074;13.754;2023-06-10T04:26:11;20.00;99.90
20291;DHT22;10304;51.074;13.754;2023-06-10T04:28:38;20.10;99.90
20291;DHT22;10304;51.074;13.754;2023-06-10T04:31:05;20.10;99.90
20291;DHT22;10304;51.074;13.754;2023-06-10T04:33:32;20.10;98.70
20291;DHT22;10304;51.074;13.754;2023-06-10T04:35:59;20.20;1.00
20291;DHT22;10304;51.074;13.754;2023-06-10T04:38:26;20.20;1.00
20291;DHT22;10304;51.074;13.754;2023-06-10T04:40:53;20.30;1.00
20291;DHT22;10304;51.074;13.754;2023-06-10T04:43:19;20.30;1.00
20291;DHT22;10304;51.074;13.754;2023-06-10T04:45:46;20.30;1.00
20291;DHT22;10304;51.074;13.754;2023-06-10T04:48:13;20.40;1.00
20291;DHT22;10304;51.074;13.754;2023-06-10T04:50:40;20.50;1.00
20291;DHT22;10304;51.074;13.754;2023-06-10T04:53:07;20.50;99.90
20291;DHT22;10304;51.074;13.754;2023-06-10T04:55:34;20.60;1.00
20291;DHT22;10304;51.074;13.754;2023-06-10T04:58:00;20.60;1.00
20291;DHT22;10304;51.074;13.754;2023-06-10T05:00:27;20.70;99.90
20291;DHT22;10304;51.074;13.754;2023-06-10T05:02:54;20.70;49.40
20291;DHT22;10304;51.074;13.754;2023-06-10T05:05:22;20.80;1.00
20291;DHT22;10304;51.074;13.754;2023-06-10T05:07:49;20.80;99.90
20291;DHT22;10304;51.074;13.754;2023-06-10T05:10:16;20.90;1.00
20291;DHT22;10304;51.074;13.754;2023-06-10T05:12:43;21.00;1.00
20291;DHT22;10304;51.074;13.754;2023-06-10T05:15:10;21.00;1.00
20291;DHT22;10304;51.074;13.754;2023-06-10T05:17:37;21.10;99.90
20291;DHT22;10304;51.074;13.754;2023-06-10T05:20:04;21.10;86.60
20291;DHT22;10304;51.074;13.754;2023-06-10T05:22:31;21.20;1.00
20291;DHT22;10304;51.074;13.754;2023-06-10T05:24:58;21.30;1.00
20291;DHT22;10304;51.074;13.754;2023-06-10T05:27:25;21.30;1.00
20291;DHT22;10304;51.074;13.754;2023-06-10T05:29:51;21.30;99.90
20291;DHT22;10304;51.074;13.754;2023-06-10T05:32:18;21.40;99.90
20291;DHT22;10304;51.074;13.754;2023-06-10T05:34:45;21.40;99.90
20291;DHT22;10304;51.074;13.754;2023-06-10T05:37:12;21.50;19.00
20291;DHT22;10304;51.074;13.754;2023-06-10T05:39:39;21.50;78.90
20291;DHT22;10304;51.074;13.754;2023-06-10T05:42:07;21.60;99.90
20291;DHT22;10304;51.074;13.754;2023-06-10T05:44:34;21.60;47.30
20291;DHT22;10304;51.074;13.754;2023-06-10T05:47:01;21.70;1.00
20291;DHT22;10304;51.074;13.754;2023-06-10T05:49:28;21.80;1.00
20291;DHT22;10304;51.074;13.754;2023-06-10T05:51:55;21.90;1.00
20291;DHT22;10304;51.074;13.754;2023-06-10T05:54:24;21.90;1.00
20291;DHT22;10304;51.074;13.754;2023-06-10T05:56:53;22.00;1.00
20291;DHT22;10304;51.074;13.754;2023-06-10T05:59:20;22.10;1.00
20291;DHT22;10304;51.074;13.754;2023-06-10T06:01:49;22.10;1.00
20291;DHT22;10304;51.074;13.754;2023-06-10T06:04:16;22.20;99.90
20291;DHT22;10304;51.074;13.754;2023-06-10T06:06:43;22.20;99.90
20291;DHT22;10304;51.074;13.754;2023-06-10T06:09:10;22.20;99.90
20291;DHT22;10304;51.074;13.754;2023-06-10T06:11:37;22.30;99.90
20291;DHT22;10304;51.074;13.754;2023-06-10T06:14:03;22.30;99.90
20291;DHT22;10304;51.074;13.754;2023-06-10T06:16:30;22.40;99.90
20291;DHT22;10304;51.074;13.754;2023-06-10T06:18:57;22.40;99.90
20291;DHT22;10304;51.074;13.754;2023-06-10T06:21:24;22.50;99.90
20291;DHT22;10304;51.074;13.754;2023-06-10T06:23:50;22.50;99.90
20291;DHT22;10304;51.074;13.754;2023-06-10T06:26:17;22.60;99.90
20291;DHT22;10304;51.074;13.754;2023-06-10T06:28:44;22.70;99.90
20291;DHT22;10304;51.074;13.754;2023-06-10T06:31:11;22.80;99.90
20291;DHT22;10304;51.074;13.754;2023-06-10T06:33:38;22.80;99.90
20291;DHT22;10304;51.074;13.754;2023-06-10T06:36:05;22.90;99.90
20291;DHT22;10304;51.074;13.754;2023-06-10T06:38:31;23.00;99.90
20291;DHT22;10304;51.074;13.754;2023-06-10T06:40:58;23.00;99.90
20291;DHT22;10304;51.074;13.754;2023-06-10T06:43:29;23.10;99.90
20291;DHT22;10304;51.074;13.754;2023-06-10T06:45:57;23.20;99.90
20291;DHT22;10304;51.074;13.754;2023-06-10T06:48:24;23.30;99.90
20291;DHT22;10304;51.074;13.754;2023-06-10T06:50:57;23.40;99.90
20291;DHT22;10304;51.074;13.754;2023-06-10T06:53:25;23.50;25.50
20291;DHT22;10304;51.074;13.754;2023-06-10T06:55:51;23.60;1.00
20291;DHT22;10304;51.074;13.754;2023-06-10T06:58:18;23.60;1.00
20291;DHT22;10304;51.074;13.754;2023-06-10T07:00:45;23.70;1.00
20291;DHT22;10304;51.074;13.754;2023-06-10T07:03:12;23.80;1.00
20291;DHT22;10304;51.074;13.754;2023-06-10T07:05:39;23.90;1.00
20291;DHT22;10304;51.074;13.754;2023-06-10T07:08:06;24.00;1.00
20291;DHT22;10304;51.074;13.754;2023-06-10T07:10:33;24.20;1.00
20291;DHT22;10304;51.074;13.754;2023-06-10T07:13:00;24.30;1.00
20291;DHT22;10304;51.074;13.754;2023-06-10T07:15:26;24.40;1.00
20291;DHT22;10304;51.074;13.754;2023-06-10T07:17:53;24.50;1.00
20291;DHT22;10304;51.074;13.754;2023-06-10T07:20:20;24.60;1.00
20291;DHT22;10304;51.074;13.754;2023-06-10T07:22:47;24.70;1.00
20291;DHT22;10304;51.074;13.754;2023-06-10T07:25:13;24.70;1.00
20291;DHT22;10304;51.074;13.754;2023-06-10T07:27:42;24.80;1.00
20291;DHT22;10304;51.074;13.754;2023-06-10T07:30:09;24.90;1.00
20291;DHT22;10304;51.074;13.754;2023-06-10T07:32:36;24.90;99.90
20291;DHT22;10304;51.074;13.754;2023-06-10T07:35:03;24.90;99.90
20291;DHT22;10304;51.074;13.754;2023-06-10T07:37:30;24.90;99.90
20291;DHT22;10304;51.074;13.754;2023-06-10T07:39:57;25.10;99.90
20291;DHT22;10304;51.074;13.754;2023-06-10T07:42:23;25.10;99.90
20291;DHT22;10304;51.074;13.754;2023-06-10T07:44:50;25.20;99.90
20291;DHT22;10304;51.074;13.754;2023-06-10T07:47:18;25.20;99.90
20291;DHT22;10304;51.074;13.754;2023-06-10T07:49:44;25.40;99.90
20291;DHT22;10304;51.074;13.754;2023-06-10T07:52:11;25.40;99.90
20291;DHT22;10304;51.074;13.754;2023-06-10T07:54:38;25.40;99.90
20291;DHT22;10304;51.074;13.754;2023-06-10T07:57:05;25.50;99.90
20291;DHT22;10304;51.074;13.754;2023-06-10T07:59:33;25.70;99.90
20291;DHT22;10304;51.074;13.754;2023-06-10T08:02:00;25.70;99.90
20291;DHT22;10304;51.074;13.754;2023-06-10T08:04:27;25.80;99.90
20291;DHT22;10304;51.074;13.754;2023-06-10T08:06:54;25.90;99.90
20291;DHT22;10304;51.074;13.754;2023-06-10T08:09:21;26.00;99.90
20291;DHT22;10304;51.074;13.754;2023-06-10T08:11:49;26.00;99.90
20291;DHT22;10304;51.074;13.754;2023-06-10T08:14:16;26.10;91.20
20291;DHT22;10304;51.074;13.754;2023-06-10T08:16:43;26.20;97.20
20291;DHT22;10304;51.074;13.754;2023-06-10T08:19:10;26.20;80.90
20291;DHT22;10304;51.074;13.754;2023-06-10T08:21:37;26.30;37.30
20291;DHT22;10304;51.074;13.754;2023-06-10T08:24:06;26.30;31.70
20291;DHT22;10304;51.074;13.754;2023-06-10T08:26:34;26.40;14.80
20291;DHT22;10304;51.074;13.754;2023-06-10T08:29:01;26.50;8.40
20291;DHT22;10304;51.074;13.754;2023-06-10T08:31:28;26.60;1.00
20291;DHT22;10304;51.074;13.754;2023-06-10T08:33:55;26.60;1.00
20291;DHT22;10304;51.074;13.754;2023-06-10T08:36:21;26.70;1.00
20291;DHT22;10304;51.074;13.754;2023-06-10T08:38:48;26.80;1.00
20291;DHT22;10304;51.074;13.754;2023-06-10T08:41:17;26.80;1.00
20291;DHT22;10304;51.074;13.754;2023-06-10T08:43:48;26.80;1.00
20291;DHT22;10304;51.074;13.754;2023-06-10T08:46:20;26.90;1.00
20291;DHT22;10304;51.074;13.754;2023-06-10T08:48:49;26.90;1.00
20291;DHT22;10304;51.074;13.754;2023-06-10T08:51:18;27.00;1.00
20291;DHT22;10304;51.074;13.754;2023-06-10T08:53:54;27.00;1.00
20291;DHT22;10304;51.074;13.754;2023-06-10T08:56:28;27.20;1.00
20291;DHT22;10304;51.074;13.754;2023-06-10T08:58:55;27.30;1.00
20291;DHT22;10304;51.074;13.754;2023-06-10T09:01:24;27.40;1.00
20291;DHT22;10304;51.074;13.754;2023-06-10T09:03:52;27.60;1.00
20291;DHT22;10304;51.074;13.754;2023-06-10T09:06:19;27.80;1.00
20291;DHT22;10304;51.074;13.754;2023-06-10T09:08:46;27.90;1.00
20291;DHT22;10304;51.074;13.754;2023-06-10T09:11:13;28.10;1.00
20291;DHT22;10304;51.074;13.754;2023-06-10T09:13:40;28.20;1.00
20291;DHT22;10304;51.074;13.754;2023-06-10T09:16:07;28.40;1.00
20291;DHT22;10304;51.074;13.754;2023-06-10T09:18:34;28.60;1.00
20291;DHT22;10304;51.074;13.754;2023-06-10T09:21:01;28.70;1.00
20291;DHT22;10304;51.074;13.754;2023-06-10T09:23:28;28.90;1.00
20291;DHT22;10304;51.074;13.754;2023-06-10T09:25:57;29.00;1.00
20291;DHT22;10304;51.074;13.754;2023-06-10T09:28:24;29.10;1.00
20291;DHT22;10304;51.074;13.754;2023-06-10T09:31:03;29.20;1.00
20291;DHT22;10304;51.074;13.754;2023-06-10T09:33:31;29.30;1.00
20291;DHT22;10304;51.074;13.754;2023-06-10T09:35:57;29.40;1.00
20291;DHT22;10304;51.074;13.754;2023-06-10T09:38:32;29.50;1.00
20291;DHT22;10304;51.074;13.754;2023-06-10T09:41:00;29.60;1.00
20291;DHT22;10304;51.074;13.754;2023-06-10T09:43:45;29.70;1.00
20291;DHT22;10304;51.074;13.754;2023-06-10T09:46:19;29.90;1.00
20291;DHT22;10304;51.074;13.754;2023-06-10T09:48:47;30.10;1.00
20291;DHT22;10304;51.074;13.754;2023-06-10T09:51:15;30.20;1.00
20291;DHT22;10304;51.074;13.754;2023-06-10T09:53:48;30.40;1.00
20291;DHT22;10304;51.074;13.754;2023-06-10T09:56:15;30.50;1.00
20291;DHT22;10304;51.074;13.754;2023-06-10T09:58:42;30.60;1.00
20291;DHT22;10304;51.074;13.754;2023-06-10T10:01:11;30.80;1.00
20291;DHT22;10304;51.074;13.754;2023-06-10T10:03:51;31.10;1.00
20291;DHT22;10304;51.074;13.754;2023-06-10T10:06:19;31.20;1.00
20291;DHT22;10304;51.074;13.754;2023-06-10T10:08:48;31.40;1.00
20291;DHT22;10304;51.074;13.754;2023-06-10T10:11:19;31.70;1.00
20291;DHT22;10304;51.074;13.754;2023-06-10T10:13:49;31.80;1.00
20291;DHT22;10304;51.074;13.754;2023-06-10T10:16:19;31.90;1.00
20291;DHT22;10304;51.074;13.754;2023-06-10T10:18:54;32.00;1.00
20291;DHT22;10304;51.074;13.754;2023-06-10T10:21:24;32.00;1.00
20291;DHT22;10304;51.074;13.754;2023-06-10T10:24:09;32.10;1.00
20291;DHT22;10304;51.074;13.754;2023-06-10T10:26:39;32.10;1.00
20291;DHT22;10304;51.074;13.754;2023-06-10T10:29:30;32.20;1.00
20291;DHT22;10304;51.074;13.754;2023-06-10T10:31:59;32.20;1.00
20291;DHT22;10304;51.074;13.754;2023-06-10T10:34:37;32.20;1.00
20291;DHT22;10304;51.074;13.754;2023-06-10T10:37:07;32.10;1.00
20291;DHT22;10304;51.074;13.754;2023-06-10T10:39:36;31.90;1.00
20291;DHT22;10304;51.074;13.754;2023-06-10T10:42:04;31.90;1.00
20291;DHT22;10304;51.074;13.754;2023-06-10T10:44:32;31.90;1.00
20291;DHT22;10304;51.074;13.754;2023-06-10T10:47:02;32.00;1.00
20291;DHT22;10304;51.074;13.754;2023-06-10T10:49:31;31.90;1.00
20291;DHT22;10304;51.074;13.754;2023-06-10T10:52:00;31.90;1.00
20291;DHT22;10304;51.074;13.754;2023-06-10T10:54:32;31.80;1.00
20291;DHT22;10304;51.074;13.754;2023-06-10T11:00:03;31.90;1.00
20291;DHT22;10304;51.074;13.754;2023-06-10T11:02:32;32.00;1.00
20291;DHT22;10304;51.074;13.754;2023-06-10T11:05:01;32.30;1.00
20291;DHT22;10304;51.074;13.754;2023-06-10T11:07:32;32.40;1.00
20291;DHT22;10304;51.074;13.754;2023-06-10T11:10:01;32.50;1.00
20291;DHT22;10304;51.074;13.754;2023-06-10T11:15:08;32.80;1.00
20291;DHT22;10304;51.074;13.754;2023-06-10T11:17:35;33.00;1.00
20291;DHT22;10304;51.074;13.754;2023-06-10T11:20:02;33.10;1.00
20291;DHT22;10304;51.074;13.754;2023-06-10T11:22:29;33.30;1.00
20291;DHT22;10304;51.074;13.754;2023-06-10T11:24:56;33.60;1.00
20291;DHT22;10304;51.074;13.754;2023-06-10T11:27:25;33.80;1.00
20291;DHT22;10304;51.074;13.754;2023-06-10T11:29:58;34.00;1.00
20291;DHT22;10304;51.074;13.754;2023-06-10T11:32:43;34.00;1.00
20291;DHT22;10304;51.074;13.754;2023-06-10T11:35:10;34.00;1.00
20291;DHT22;10304;51.074;13.754;2023-06-10T11:37:37;33.90;1.00
20291;DHT22;10304;51.074;13.754;2023-06-10T11:40:06;33.90;1.00
20291;DHT22;10304;51.074;13.754;2023-06-10T11:42:33;33.80;1.00
20291;DHT22;10304;51.074;13.754;2023-06-10T11:45:06;33.70;1.00
20291;DHT22;10304;51.074;13.754;2023-06-10T11:47:35;33.60;1.00
20291;DHT22;10304;51.074;13.754;2023-06-10T11:50:02;33.60;1.00
20291;DHT22;10304;51.074;13.754;2023-06-10T11:52:30;33.60;1.00
20291;DHT22;10304;51.074;13.754;2023-06-10T11:54:58;33.60;1.00
20291;DHT22;10304;51.074;13.754;2023-06-10T11:57:25;33.70;1.00
20291;DHT22;10304;51.074;13.754;2023-06-10T11:59:52;33.70;1.00
20291;DHT22;10304;51.074;13.754;2023-06-10T12:02:19;33.60;1.00
20291;DHT22;10304;51.074;13.754;2023-06-10T12:04:46;33.40;1.00
20291;DHT22;10304;51.074;13.754;2023-06-10T12:07:19;33.30;1.00
20291;DHT22;10304;51.074;13.754;2023-06-10T12:09:46;33.20;1.00
20291;DHT22;10304;51.074;13.754;2023-06-10T12:12:13;33.30;1.00
20291;DHT22;10304;51.074;13.754;2023-06-10T12:14:53;33.50;1.00
20291;DHT22;10304;51.074;13.754;2023-06-10T12:20:02;34.20;1.00
20291;DHT22;10304;51.074;13.754;2023-06-10T12:22:41;34.50;1.00
20291;DHT22;10304;51.074;13.754;2023-06-10T12:25:08;34.90;1.00
20291;DHT22;10304;51.074;13.754;2023-06-10T12:27:38;35.20;1.00
20291;DHT22;10304;51.074;13.754;2023-06-10T12:30:05;35.50;1.00
20291;DHT22;10304;51.074;13.754;2023-06-10T12:32:45;35.70;1.00
20291;DHT22;10304;51.074;13.754;2023-06-10T12:35:13;36.00;1.00
20291;DHT22;10304;51.074;13.754;2023-06-10T12:37:41;36.20;1.00
20291;DHT22;10304;51.074;13.754;2023-06-10T12:40:10;36.50;1.00
20291;DHT22;10304;51.074;13.754;2023-06-10T12:42:37;36.70;1.00
20291;DHT22;10304;51.074;13.754;2023-06-10T12:45:05;36.90;1.00
20291;DHT22;10304;51.074;13.754;2023-06-10T12:47:35;37.20;1.00
20291;DHT22;10304;51.074;13.754;2023-06-10T12:50:05;37.50;1.00
20291;DHT22;10304;51.074;13.754;2023-06-10T12:52:32;37.70;1.00
20291;DHT22;10304;51.074;13.754;2023-06-10T12:54:59;37.70;1.00
20291;DHT22;10304;51.074;13.754;2023-06-10T12:57:27;37.80;1.00
20291;DHT22;10304;51.074;13.754;2023-06-10T12:59:54;37.90;1.00
20291;DHT22;10304;51.074;13.754;2023-06-10T13:02:23;37.90;1.00
20291;DHT22;10304;51.074;13.754;2023-06-10T13:04:51;38.10;1.00
20291;DHT22;10304;51.074;13.754;2023-06-10T13:07:18;38.10;1.00
20291;DHT22;10304;51.074;13.754;2023-06-10T13:09:44;38.30;1.00
20291;DHT22;10304;51.074;13.754;2023-06-10T13:12:11;38.60;1.00
20291;DHT22;10304;51.074;13.754;2023-06-10T13:14:42;38.70;1.00
20291;DHT22;10304;51.074;13.754;2023-06-10T13:17:09;38.90;1.00
20291;DHT22;10304;51.074;13.754;2023-06-10T13:19:35;38.90;1.00
20291;DHT22;10304;51.074;13.754;2023-06-10T13:22:03;39.00;1.00
20291;DHT22;10304;51.074;13.754;2023-06-10T13:24:30;39.20;1.00
20291;DHT22;10304;51.074;13.754;2023-06-10T13:26:57;39.40;1.00
20291;DHT22;10304;51.074;13.754;2023-06-10T13:29:24;39.40;1.00
20291;DHT22;10304;51.074;13.754;2023-06-10T13:31:50;39.40;1.00
20291;DHT22;10304;51.074;13.754;2023-06-10T13:34:17;39.50;1.00
20291;DHT22;10304;51.074;13.754;2023-06-10T13:36:44;39.70;1.00
20291;DHT22;10304;51.074;13.754;2023-06-10T13:39:11;39.80;1.00
20291;DHT22;10304;51.074;13.754;2023-06-10T13:41:37;39.80;1.00
20291;DHT22;10304;51.074;13.754;2023-06-10T13:44:04;39.90;1.00
20291;DHT22;10304;51.074;13.754;2023-06-10T13:46:31;40.00;1.00
20291;DHT22;10304;51.074;13.754;2023-06-10T13:48:58;40.10;1.00
20291;DHT22;10304;51.074;13.754;2023-06-10T13:51:24;40.20;1.00
20291;DHT22;10304;51.074;13.754;2023-06-10T13:53:51;40.30;1.00
20291;DHT22;10304;51.074;13.754;2023-06-10T13:56:18;40.40;1.00
20291;DHT22;10304;51.074;13.754;2023-06-10T13:58:45;40.40;1.00
20291;DHT22;10304;51.074;13.754;2023-06-10T14:01:12;40.50;1.00
20291;DHT22;10304;51.074;13.754;2023-06-10T14:03:39;40.50;1.00
20291;DHT22;10304;51.074;13.754;2023-06-10T14:06:05;40.50;1.00
20291;DHT22;10304;51.074;13.754;2023-06-10T14:08:32;40.50;1.00
20291;DHT22;10304;51.074;13.754;2023-06-10T14:10:59;40.50;1.00
20291;DHT22;10304;51.074;13.754;2023-06-10T14:13:26;40.50;1.00
20291;DHT22;10304;51.074;13.754;2023-06-10T14:15:53;40.30;1.00
20291;DHT22;10304;51.074;13.754;2023-06-10T14:18:19;40.20;1.00
20291;DHT22;10304;51.074;13.754;2023-06-10T14:20:46;40.10;1.00
20291;DHT22;10304;51.074;13.754;2023-06-10T14:23:13;40.10;1.00
20291;DHT22;10304;51.074;13.754;2023-06-10T14:25:39;40.00;1.00
20291;DHT22;10304;51.074;13.754;2023-06-10T14:28:06;40.10;1.00
20291;DHT22;10304;51.074;13.754;2023-06-10T14:30:33;40.00;1.00
20291;DHT22;10304;51.074;13.754;2023-06-10T14:33:00;40.00;1.00
20291;DHT22;10304;51.074;13.754;2023-06-10T14:35:26;40.00;1.00
20291;DHT22;10304;51.074;13.754;2023-06-10T14:37:53;40.00;1.00
20291;DHT22;10304;51.074;13.754;2023-06-10T14:40:20;40.10;1.00
20291;DHT22;10304;51.074;13.754;2023-06-10T14:42:49;40.00;1.00
20291;DHT22;10304;51.074;13.754;2023-06-10T14:45:16;40.00;1.00
20291;DHT22;10304;51.074;13.754;2023-06-10T14:47:42;40.10;1.00
20291;DHT22;10304;51.074;13.754;2023-06-10T14:50:09;40.10;1.00
20291;DHT22;10304;51.074;13.754;2023-06-10T14:52:36;40.10;1.00
20291;DHT22;10304;51.074;13.754;2023-06-10T14:55:03;40.10;1.00
20291;DHT22;10304;51.074;13.754;2023-06-10T14:57:30;40.10;1.00
20291;DHT22;10304;51.074;13.754;2023-06-10T14:59:59;40.20;1.00
20291;DHT22;10304;51.074;13.754;2023-06-10T15:02:26;40.30;1.00
20291;DHT22;10304;51.074;13.754;2023-06-10T15:04:54;40.40;1.00
20291;DHT22;10304;51.074;13.754;2023-06-10T15:07:20;40.40;1.00
20291;DHT22;10304;51.074;13.754;2023-06-10T15:09:47;40.30;1.00
20291;DHT22;10304;51.074;13.754;2023-06-10T15:12:14;40.20;1.00
20291;DHT22;10304;51.074;13.754;2023-06-10T15:14:41;40.20;1.00
20291;DHT22;10304;51.074;13.754;2023-06-10T15:17:07;40.10;1.00
20291;DHT22;10304;51.074;13.754;2023-06-10T15:19:34;40.00;1.00
20291;DHT22;10304;51.074;13.754;2023-06-10T15:22:01;40.00;1.00
20291;DHT22;10304;51.074;13.754;2023-06-10T15:24:27;39.70;1.00
20291;DHT22;10304;51.074;13.754;2023-06-10T15:26:54;39.30;1.00
20291;DHT22;10304;51.074;13.754;2023-06-10T15:29:21;39.40;1.00
20291;DHT22;10304;51.074;13.754;2023-06-10T15:31:48;39.40;1.00
20291;DHT22;10304;51.074;13.754;2023-06-10T15:34:14;39.50;1.00
20291;DHT22;10304;51.074;13.754;2023-06-10T15:36:41;39.30;1.00
20291;DHT22;10304;51.074;13.754;2023-06-10T15:39:08;39.20;1.00
20291;DHT22;10304;51.074;13.754;2023-06-10T15:41:34;39.10;1.00
20291;DHT22;10304;51.074;13.754;2023-06-10T15:44:01;39.10;1.00